createdAt,value
2022-08-28T00:00:32.378Z,23.77
2022-08-28T00:03:02.090Z,22.71
2022-08-28T00:05:32.570Z,23.41
2022-08-28T00:08:01.196Z,23.61
2022-08-28T00:10:30.575Z,24.51
2022-08-28T00:12:58.717Z,24.51
2022-08-28T00:15:30.763Z,23.84
2022-08-28T00:17:59.600Z,24.55
2022-08-28T00:20:29.616Z,24.33
2022-08-28T00:22:57.571Z,24.39
2022-08-28T00:25:30.376Z,24.73
2022-08-28T00:28:08.403Z,24.91
2022-08-28T00:30:41.008Z,24.84
2022-08-28T00:33:12.622Z,24.65
2022-08-28T00:35:43.424Z,24.50
2022-08-28T00:38:12.246Z,24.62
2022-08-28T00:40:42.814Z,24.35
2022-08-28T00:43:23.151Z,24.84
2022-08-28T00:45:50.963Z,24.72
2022-08-28T00:48:22.622Z,24.90
2022-08-28T00:51:09.209Z,24.62
2022-08-28T00:53:39.557Z,24.81
2022-08-28T00:56:13.316Z,25.17
2022-08-28T00:58:42.506Z,25.05
2022-08-28T01:01:10.982Z,24.59
2022-08-28T01:03:39.079Z,24.41
2022-08-28T01:06:11.166Z,24.90
2022-08-28T01:08:41.697Z,25.34
2022-08-28T01:11:13.393Z,25.34
2022-08-28T01:13:47.007Z,25.01
2022-08-28T01:16:16.171Z,25.01
2022-08-28T01:18:44.971Z,24.74
2022-08-28T01:21:23.760Z,24.64
2022-08-28T01:23:57.695Z,24.32
2022-08-28T01:26:28.256Z,24.51
2022-08-28T01:28:58.219Z,24.57
2022-08-28T01:31:27.649Z,25.17
2022-08-28T01:33:55.686Z,25.05
2022-08-28T01:36:24.889Z,25.32
2022-08-28T01:39:00.024Z,25.40
2022-08-28T01:41:29.524Z,25.61
2022-08-28T01:43:57.513Z,25.36
2022-08-28T01:46:25.558Z,24.54
2022-08-28T01:48:53.303Z,24.51
2022-08-28T01:51:24.507Z,24.93
2022-08-28T01:53:52.858Z,25.16
2022-08-28T01:56:22.109Z,24.73
2022-08-28T01:58:50.303Z,25.09
2022-08-28T02:01:20.793Z,24.55
2022-08-28T02:03:50.142Z,24.17
2022-08-28T02:06:19.587Z,24.77
2022-08-28T02:08:49.731Z,24.34
2022-08-28T02:11:17.674Z,24.60
2022-08-28T02:13:46.819Z,24.50
2022-08-28T02:16:20.800Z,24.81
2022-08-28T02:18:49.919Z,24.78
2022-08-28T02:21:17.715Z,24.19
2022-08-28T02:23:46.305Z,24.62
2022-08-28T02:26:15.841Z,25.05
2022-08-28T02:28:43.969Z,24.48
2022-08-28T02:31:13.437Z,24.39
2022-08-28T02:33:43.481Z,24.53
2022-08-28T02:36:13.664Z,24.18
2022-08-28T02:38:41.818Z,24.17
2022-08-28T02:41:10.063Z,24.36
2022-08-28T02:43:37.965Z,24.20
2022-08-28T02:46:06.997Z,24.23
2022-08-28T02:48:38.443Z,24.19
2022-08-28T02:51:09.367Z,23.50
2022-08-28T02:53:37.284Z,23.39
2022-08-28T02:56:06.059Z,23.71
2022-08-28T02:58:35.358Z,23.39
2022-08-28T03:01:04.893Z,23.70
2022-08-28T03:03:33.441Z,22.98
2022-08-28T03:06:03.848Z,23.46
2022-08-28T03:08:32.267Z,23.68
2022-08-28T03:11:00.393Z,23.67
2022-08-28T03:13:28.729Z,23.84
2022-08-28T03:15:57.160Z,23.81
2022-08-28T03:18:25.660Z,24.20
2022-08-28T03:20:55.487Z,23.88
2022-08-28T03:23:27.811Z,23.95
2022-08-28T03:25:58.176Z,23.92
2022-08-28T03:28:27.943Z,24.09
2022-08-28T03:30:56.123Z,23.90
2022-08-28T03:33:23.997Z,23.62
2022-08-28T03:35:52.284Z,23.88
2022-08-28T03:38:21.417Z,23.46
2022-08-28T03:40:51.671Z,23.14
2022-08-28T03:43:22.507Z,23.41
2022-08-28T03:45:57.223Z,23.03
2022-08-28T03:48:25.385Z,22.67
2022-08-28T03:50:54.438Z,22.74
2022-08-28T03:53:24.614Z,22.85
2022-08-28T03:55:54.670Z,23.62
2022-08-28T03:58:23.366Z,23.49
2022-08-28T04:00:51.360Z,23.50
2022-08-28T04:03:19.669Z,22.85
2022-08-28T04:05:48.451Z,23.36
2022-08-28T04:08:17.709Z,23.42
2022-08-28T04:10:46.587Z,23.75
2022-08-28T04:13:17.637Z,23.78
2022-08-28T04:15:46.264Z,23.71
2022-08-28T04:18:14.400Z,23.58
2022-08-28T04:20:42.563Z,23.61
2022-08-28T04:23:14.365Z,23.15
2022-08-28T04:25:42.283Z,23.82
2022-08-28T04:28:10.590Z,23.73
2022-08-28T04:30:41.834Z,23.16
2022-08-28T04:33:10.518Z,23.57
2022-08-28T04:35:38.536Z,23.52
2022-08-28T04:38:06.416Z,23.26
2022-08-28T04:40:34.361Z,23.76
2022-08-28T04:43:02.202Z,23.35
2022-08-28T04:45:31.628Z,23.80
2022-08-28T04:48:03.338Z,24.07
2022-08-28T04:50:33.498Z,23.88
2022-08-28T04:53:01.352Z,23.83
2022-08-28T04:55:50.042Z,23.42
2022-08-28T04:58:20.318Z,23.59
2022-08-28T05:00:53.239Z,23.26
2022-08-28T05:03:23.112Z,23.39
2022-08-28T05:05:53.053Z,23.55
2022-08-28T05:08:26.905Z,24.01
2022-08-28T05:10:56.020Z,23.50
2022-08-28T05:13:23.895Z,23.59
2022-08-28T05:15:53.093Z,23.71
2022-08-28T05:18:24.249Z,24.28
2022-08-28T05:20:52.170Z,24.29
2022-08-28T05:23:19.926Z,24.15
2022-08-28T05:25:53.356Z,24.00
2022-08-28T05:28:24.769Z,24.07
2022-08-28T05:30:53.506Z,24.22
2022-08-28T05:33:22.730Z,23.79
2022-08-28T05:35:50.573Z,23.67
2022-08-28T05:38:18.388Z,23.01
2022-08-28T05:40:49.353Z,23.21
2022-08-28T05:43:18.137Z,22.73
2022-08-28T05:45:45.986Z,23.19
2022-08-28T05:48:16.122Z,23.27
2022-08-28T05:50:47.627Z,22.76
2022-08-28T05:53:17.929Z,22.97
2022-08-28T05:55:46.522Z,23.08
2022-08-28T05:58:34.776Z,22.58
2022-08-28T06:01:12.749Z,22.98
2022-08-28T06:03:42.488Z,22.71
2022-08-28T06:06:12.971Z,22.46
2022-08-28T06:08:58.043Z,22.41
2022-08-28T06:11:27.119Z,22.15
2022-08-28T06:13:59.677Z,22.33
2022-08-28T06:16:31.373Z,22.90
2022-08-28T06:18:59.404Z,22.61
2022-08-28T06:21:29.408Z,22.41
2022-08-28T06:23:57.155Z,22.76
2022-08-28T06:26:24.940Z,22.81
2022-08-28T06:28:53.562Z,22.88
2022-08-28T06:31:24.705Z,22.84
2022-08-28T06:33:54.590Z,22.39
2022-08-28T06:36:22.736Z,22.75
2022-08-28T06:38:51.902Z,22.89
2022-08-28T06:41:19.863Z,22.78
2022-08-28T06:43:47.628Z,23.25
2022-08-28T06:46:15.543Z,22.97
2022-08-28T06:48:43.395Z,22.90
2022-08-28T06:51:13.405Z,23.18
2022-08-28T06:53:43.038Z,23.53
2022-08-28T06:56:25.576Z,23.13
2022-08-28T06:58:55.793Z,23.79
2022-08-28T07:01:27.037Z,24.43
2022-08-28T07:03:59.010Z,23.50
2022-08-28T07:06:26.871Z,23.28
2022-08-28T07:08:54.620Z,23.40
2022-08-28T07:11:27.579Z,23.99
2022-08-28T07:13:56.622Z,24.53
2022-08-28T07:16:26.902Z,24.26
2022-08-28T07:18:55.339Z,23.65
2022-08-28T07:21:23.575Z,23.37
2022-08-28T07:23:51.422Z,23.30
2022-08-28T07:26:24.354Z,23.42
2022-08-28T07:28:59.511Z,22.87
2022-08-28T07:31:40.656Z,23.45
2022-08-28T07:34:09.463Z,24.05
2022-08-28T07:36:37.806Z,23.67
2022-08-28T07:39:05.987Z,23.92
2022-08-28T07:41:39.010Z,24.31
2022-08-28T07:44:29.313Z,23.64
2022-08-28T07:46:59.133Z,23.19
2022-08-28T07:49:27.436Z,23.84
2022-08-28T07:51:55.311Z,24.15
2022-08-28T07:54:23.292Z,24.74
2022-08-28T07:56:53.631Z,24.77
2022-08-28T07:59:22.006Z,25.24
2022-08-28T08:01:51.782Z,25.53
2022-08-28T08:04:21.207Z,25.20
2022-08-28T08:06:50.625Z,25.67
2022-08-28T08:09:22.815Z,25.93
2022-08-28T08:11:52.266Z,25.97
2022-08-28T08:14:20.253Z,25.49
2022-08-28T08:16:49.205Z,25.92
2022-08-28T08:19:18.858Z,25.91
2022-08-28T08:21:54.652Z,26.22
2022-08-28T08:24:26.447Z,25.42
2022-08-28T08:26:59.542Z,26.17
2022-08-28T08:29:29.914Z,25.06
2022-08-28T08:31:59.112Z,26.18
2022-08-28T08:34:27.010Z,25.82
2022-08-28T08:36:55.362Z,25.53
2022-08-28T08:39:23.252Z,26.12
2022-08-28T08:41:54.314Z,25.45
2022-08-28T08:44:33.294Z,25.79
2022-08-28T08:47:14.047Z,26.47
2022-08-28T08:49:50.113Z,26.72
2022-08-28T08:52:35.867Z,27.12
2022-08-28T08:55:22.062Z,27.38
2022-08-28T08:57:55.107Z,27.94
2022-08-28T09:00:24.826Z,28.20
2022-08-28T09:02:59.674Z,26.52
2022-08-28T09:05:43.726Z,27.86
2022-08-28T09:08:22.283Z,28.06
2022-08-28T09:11:01.114Z,26.96
2022-08-28T09:13:39.509Z,28.22
2022-08-28T09:16:18.034Z,27.83
2022-08-28T09:18:48.076Z,27.70
2022-08-28T09:21:29.197Z,27.75
2022-08-28T09:24:01.933Z,28.52
2022-08-28T09:26:34.200Z,27.69
2022-08-28T09:29:05.086Z,28.54
2022-08-28T09:31:37.273Z,29.29
2022-08-28T09:34:20.987Z,27.85
2022-08-28T09:36:48.787Z,27.35
2022-08-28T09:39:19.757Z,27.51
2022-08-28T09:42:11.301Z,25.95
2022-08-28T09:44:51.985Z,27.69
2022-08-28T09:47:46.981Z,26.90
2022-08-28T09:50:34.652Z,28.36
2022-08-28T09:53:18.064Z,28.15
2022-08-28T09:55:54.912Z,28.71
2022-08-28T09:58:23.455Z,28.20
2022-08-28T10:00:56.977Z,27.32
2022-08-28T10:03:30.823Z,28.09
2022-08-28T10:06:04.127Z,27.96
2022-08-28T10:08:51.800Z,29.17
2022-08-28T10:11:26.256Z,29.60
2022-08-28T10:14:08.809Z,30.95
2022-08-28T10:16:48.093Z,31.94
2022-08-28T10:19:27.692Z,31.94
2022-08-28T10:22:05.401Z,32.67
2022-08-28T10:24:53.097Z,31.20
2022-08-28T10:27:36.040Z,31.84
2022-08-28T10:30:12.519Z,33.57
2022-08-28T10:32:59.144Z,33.97
2022-08-28T10:35:40.857Z,34.66
2022-08-28T10:38:13.487Z,35.30
2022-08-28T10:40:48.577Z,32.70
2022-08-28T10:43:20.229Z,34.38
2022-08-28T10:45:51.536Z,32.40
2022-08-28T10:48:24.989Z,34.42
2022-08-28T10:50:56.020Z,34.58
2022-08-28T10:53:28.918Z,35.02
2022-08-28T10:55:59.438Z,35.63
2022-08-28T10:58:31.203Z,35.74
2022-08-28T11:01:03.195Z,34.06
2022-08-28T11:03:35.822Z,33.32
2022-08-28T11:06:11.411Z,34.50
2022-08-28T11:08:40.659Z,32.81
2022-08-28T11:11:14.766Z,34.14
2022-08-28T11:13:50.832Z,32.93
2022-08-28T11:16:22.079Z,34.01
2022-08-28T11:19:20.026Z,35.86
2022-08-28T11:21:54.036Z,35.03
2022-08-28T11:24:36.258Z,33.65
2022-08-28T11:27:22.327Z,33.78
2022-08-28T11:30:35.300Z,32.70
2022-08-28T11:33:09.845Z,33.27
2022-08-28T11:35:59.043Z,34.04
2022-08-28T11:39:04.924Z,33.53
2022-08-28T11:41:36.362Z,34.19
2022-08-28T11:44:28.452Z,34.11
2022-08-28T11:47:16.721Z,34.71
2022-08-28T11:49:46.762Z,35.72
2022-08-28T11:52:34.442Z,35.18
2022-08-28T11:55:14.572Z,35.04
2022-08-28T12:00:32.886Z,36.25
2022-08-28T12:03:12.020Z,34.33
2022-08-28T12:05:47.937Z,35.11
2022-08-28T12:08:48.882Z,35.48
2022-08-28T12:11:49.514Z,36.32
2022-08-28T12:15:02.096Z,37.17
2022-08-28T12:17:57.174Z,37.18
2022-08-28T12:20:36.237Z,37.66
2022-08-28T12:23:42.896Z,36.04
2022-08-28T12:26:20.747Z,38.07
2022-08-28T12:28:52.155Z,37.71
2022-08-28T12:32:03.865Z,36.43
2022-08-28T12:34:43.618Z,35.63
2022-08-28T12:37:35.781Z,35.42
2022-08-28T12:40:23.085Z,36.58
2022-08-28T12:42:55.607Z,36.24
2022-08-28T12:45:28.861Z,36.24
2022-08-28T12:48:00.043Z,35.73
2022-08-28T12:50:31.621Z,36.87
2022-08-28T12:53:01.431Z,36.39
2022-08-28T12:55:31.228Z,36.76
2022-08-28T12:57:59.378Z,34.82
2022-08-28T13:00:34.852Z,35.75
2022-08-28T13:03:04.056Z,35.50
2022-08-28T13:05:34.849Z,36.10
2022-08-28T13:08:05.356Z,35.88
2022-08-28T13:10:38.382Z,36.10
2022-08-28T13:13:10.801Z,35.45
2022-08-28T13:15:51.369Z,34.92
2022-08-28T13:18:42.617Z,35.24
2022-08-28T13:21:34.884Z,35.38
2022-08-28T13:24:26.235Z,36.19
2022-08-28T13:27:05.631Z,35.84
2022-08-28T13:29:34.047Z,35.56
2022-08-28T13:32:04.085Z,35.16
2022-08-28T13:34:34.635Z,36.47
2022-08-28T13:37:07.311Z,35.36
2022-08-28T13:39:43.212Z,35.87
2022-08-28T13:42:15.178Z,35.89
2022-08-28T13:44:48.532Z,36.20
2022-08-28T13:47:17.224Z,34.64
2022-08-28T13:49:45.055Z,34.97
2022-08-28T13:52:13.148Z,35.29
2022-08-28T13:54:41.607Z,35.52
2022-08-28T13:57:13.378Z,34.86
2022-08-28T13:59:41.386Z,35.56
2022-08-28T14:02:30.663Z,35.32
2022-08-28T14:04:58.728Z,35.14
2022-08-28T14:07:26.553Z,34.54
2022-08-28T14:09:56.546Z,34.61
2022-08-28T14:12:32.604Z,34.52
2022-08-28T14:15:02.028Z,34.64
2022-08-28T14:17:29.988Z,35.17
2022-08-28T14:19:59.669Z,35.27
2022-08-28T14:22:27.695Z,35.64
2022-08-28T14:24:55.511Z,35.73
2022-08-28T14:27:23.530Z,35.91
2022-08-28T14:29:53.431Z,35.33
2022-08-28T14:32:21.533Z,35.22
2022-08-28T14:34:50.548Z,34.71
2022-08-28T14:37:19.217Z,35.08
2022-08-28T14:39:47.913Z,35.05
2022-08-28T14:42:17.728Z,35.24
2022-08-28T14:44:45.636Z,35.55
2022-08-28T14:47:14.820Z,35.90
2022-08-28T14:49:42.753Z,34.99
2022-08-28T14:52:10.580Z,34.57
2022-08-28T14:54:40.227Z,34.52
2022-08-28T14:57:08.071Z,35.16
2022-08-28T14:59:36.177Z,34.93
2022-08-28T15:02:04.048Z,34.12
2022-08-28T15:04:37.673Z,34.58
2022-08-28T15:07:06.573Z,33.90
2022-08-28T15:09:36.946Z,33.90
2022-08-28T15:12:05.525Z,35.21
2022-08-28T15:14:33.402Z,34.82
2022-08-28T15:17:01.319Z,34.52
2022-08-28T15:19:29.986Z,34.25
2022-08-28T15:21:59.889Z,34.30
2022-08-28T15:24:30.889Z,34.79
2022-08-28T15:26:59.581Z,33.46
2022-08-28T15:29:28.334Z,33.52
2022-08-28T15:31:56.985Z,33.53
2022-08-28T15:34:26.811Z,34.76
2022-08-28T15:36:56.150Z,33.69
2022-08-28T15:42:37.161Z,33.40
2022-08-28T15:45:05.662Z,33.32
2022-08-28T15:47:33.454Z,33.43
2022-08-28T15:50:01.357Z,33.10
2022-08-28T15:52:29.161Z,33.68
2022-08-28T15:54:58.320Z,33.35
2022-08-28T15:57:26.061Z,33.25
2022-08-28T15:59:54.373Z,33.31
2022-08-28T16:02:24.158Z,33.61
2022-08-28T16:04:52.801Z,34.12
2022-08-28T16:07:22.125Z,33.62
2022-08-28T16:09:50.551Z,33.32
2022-08-28T16:12:20.482Z,33.14
2022-08-28T16:14:48.721Z,32.90
2022-08-28T16:17:16.604Z,33.20
2022-08-28T16:19:45.001Z,32.86
2022-08-28T16:22:15.719Z,33.51
2022-08-28T16:24:44.042Z,33.43
2022-08-28T16:27:15.386Z,33.58
2022-08-28T16:29:45.226Z,32.86
2022-08-28T16:32:13.569Z,32.72
2022-08-28T16:34:44.504Z,31.96
2022-08-28T16:37:12.909Z,32.10
2022-08-28T16:39:40.756Z,32.02
2022-08-28T16:42:08.836Z,31.77
2022-08-28T16:44:37.410Z,31.77
2022-08-28T16:47:06.901Z,31.80
2022-08-28T16:49:34.845Z,31.95
2022-08-28T16:52:03.010Z,32.43
2022-08-28T16:54:30.779Z,32.24
2022-08-28T16:56:58.661Z,32.81
2022-08-28T16:59:26.476Z,32.24
2022-08-28T17:01:54.603Z,32.96
2022-08-28T17:04:24.137Z,33.39
2022-08-28T17:06:53.243Z,32.49
2022-08-28T17:09:23.445Z,32.58
2022-08-28T17:11:53.908Z,32.44
2022-08-28T17:14:22.277Z,31.71
2022-08-28T17:16:51.208Z,31.40
2022-08-28T17:19:20.905Z,31.90
2022-08-28T17:22:07.577Z,31.59
2022-08-28T17:24:35.413Z,31.93
2022-08-28T17:27:05.698Z,32.03
2022-08-28T17:29:34.597Z,31.86
2022-08-28T17:32:02.611Z,31.58
2022-08-28T17:34:33.121Z,31.44
2022-08-28T17:37:02.847Z,31.54
2022-08-28T17:39:30.744Z,31.43
2022-08-28T17:41:58.651Z,31.27
2022-08-28T17:44:26.474Z,31.19
2022-08-28T17:46:54.341Z,30.51
2022-08-28T17:49:22.666Z,30.65
2022-08-28T17:51:51.023Z,30.67
2022-08-28T17:54:24.061Z,30.78
2022-08-28T17:56:56.066Z,30.53
2022-08-28T17:59:26.659Z,30.09
2022-08-28T18:01:54.770Z,30.18
2022-08-28T18:04:24.668Z,30.33
2022-08-28T18:06:54.318Z,30.59
2022-08-28T18:09:24.922Z,30.39
2022-08-28T18:11:53.056Z,30.31
2022-08-28T18:14:21.565Z,30.43
2022-08-28T18:16:49.496Z,30.19
2022-08-28T18:19:17.365Z,30.17
2022-08-28T18:21:45.277Z,30.05
2022-08-28T18:24:14.010Z,29.93
2022-08-28T18:26:43.785Z,30.07
2022-08-28T18:29:14.469Z,29.97
2022-08-28T18:31:43.291Z,29.74
2022-08-28T18:34:11.542Z,29.76
2022-08-28T18:36:41.488Z,29.57
2022-08-28T18:39:09.748Z,29.46
2022-08-28T18:41:44.183Z,29.45
2022-08-28T18:44:15.151Z,29.26
2022-08-28T18:46:44.651Z,29.44
2022-08-28T18:49:13.437Z,29.59
2022-08-28T18:51:43.340Z,29.10
2022-08-28T18:54:11.240Z,29.10
2022-08-28T18:56:40.853Z,29.32
2022-08-28T18:59:09.248Z,29.44
2022-08-28T19:01:38.708Z,29.51
2022-08-28T19:04:06.823Z,29.35
2022-08-28T19:06:35.498Z,29.30
2022-08-28T19:09:06.759Z,28.97
2022-08-28T19:11:35.817Z,29.16
2022-08-28T19:14:04.213Z,28.21
2022-08-28T19:16:32.735Z,28.45
2022-08-28T19:19:02.357Z,28.37
2022-08-28T19:21:30.757Z,28.23
2022-08-28T19:23:58.805Z,28.33
2022-08-28T19:26:27.854Z,27.56
2022-08-28T19:28:56.084Z,26.90
2022-08-28T19:31:28.348Z,26.67
2022-08-28T19:33:59.594Z,26.40
2022-08-28T19:36:30.308Z,25.98
2022-08-28T19:38:58.903Z,26.41
2022-08-28T19:41:27.471Z,26.21
2022-08-28T19:43:55.325Z,25.91
2022-08-28T19:46:25.338Z,25.98
2022-08-28T19:48:54.060Z,26.22
2022-08-28T19:51:24.347Z,26.07
2022-08-28T19:53:58.208Z,25.51
2022-08-28T19:56:27.950Z,26.00
2022-08-28T19:58:58.325Z,25.57
2022-08-28T20:01:26.319Z,25.74
2022-08-28T20:03:54.150Z,26.56
2022-08-28T20:06:21.980Z,26.76
2022-08-28T20:08:49.986Z,27.08
2022-08-28T20:11:24.680Z,27.36
2022-08-28T20:13:53.234Z,27.48
2022-08-28T20:16:21.442Z,27.46
2022-08-28T20:18:49.789Z,27.73
2022-08-28T20:21:18.694Z,27.83
2022-08-28T20:23:54.022Z,27.01
2022-08-28T20:26:23.201Z,27.54
2022-08-28T20:28:56.095Z,27.77
2022-08-28T20:31:24.033Z,26.85
2022-08-28T20:33:52.016Z,26.97
2022-08-28T20:36:21.414Z,27.27
2022-08-28T20:38:49.273Z,27.49
2022-08-28T20:41:19.200Z,27.58
2022-08-28T20:43:49.016Z,27.27
2022-08-28T20:46:17.621Z,27.05
2022-08-28T20:48:45.674Z,26.31
2022-08-28T20:51:13.612Z,26.81
2022-08-28T20:53:41.388Z,27.15
2022-08-28T20:56:11.127Z,27.31
2022-08-28T20:58:39.703Z,27.30
2022-08-28T21:01:09.121Z,27.43
2022-08-28T21:03:36.914Z,27.47
2022-08-28T21:06:05.028Z,27.38
2022-08-28T21:08:32.804Z,27.35
2022-08-28T21:11:00.618Z,27.29
2022-08-28T21:13:28.445Z,27.40
2022-08-28T21:15:56.357Z,27.43
2022-08-28T21:18:25.575Z,27.42
2022-08-28T21:20:55.534Z,27.45
2022-08-28T21:23:24.337Z,27.41
2022-08-28T21:25:52.096Z,26.71
2022-08-28T21:28:19.912Z,26.52
2022-08-28T21:30:47.802Z,26.89
2022-08-28T21:33:15.708Z,26.95
2022-08-28T21:35:46.357Z,27.07
2022-08-28T21:38:14.319Z,27.15
2022-08-28T21:40:42.544Z,27.18
2022-08-28T21:43:10.401Z,27.06
2022-08-28T21:45:38.313Z,25.98
2022-08-28T21:48:06.368Z,26.32
2022-08-28T21:50:34.147Z,24.93
2022-08-28T21:53:03.332Z,24.09
2022-08-28T21:55:31.089Z,22.59
2022-08-28T21:57:58.914Z,22.15
2022-08-28T22:00:26.701Z,23.29
2022-08-28T22:02:54.537Z,22.46
2022-08-28T22:05:22.538Z,22.18
2022-08-28T22:07:50.365Z,21.87
2022-08-28T22:10:19.498Z,22.96
2022-08-28T22:12:50.805Z,23.55
2022-08-28T22:15:18.747Z,24.35
2022-08-28T22:17:46.850Z,25.04
2022-08-28T22:20:14.773Z,25.34
2022-08-28T22:23:00.241Z,25.64
2022-08-28T22:25:29.490Z,25.71
2022-08-28T22:27:57.445Z,25.78
2022-08-28T22:30:25.436Z,24.95
2022-08-28T22:32:53.363Z,24.65
2022-08-28T22:35:21.139Z,24.41
2022-08-28T22:37:49.120Z,24.36
2022-08-28T22:40:16.978Z,24.70
2022-08-28T22:42:46.175Z,24.29
2022-08-28T22:45:14.335Z,24.63
2022-08-28T22:47:42.441Z,24.90
2022-08-28T22:50:10.865Z,25.26
2022-08-28T22:52:39.137Z,25.22
2022-08-28T22:55:10.418Z,25.51
2022-08-28T22:57:40.518Z,24.99
2022-08-28T23:00:13.521Z,25.02
2022-08-28T23:02:42.197Z,24.32
2022-08-28T23:05:10.043Z,24.96
2022-08-28T23:07:40.757Z,25.09
2022-08-28T23:10:10.318Z,25.11
2022-08-28T23:12:38.254Z,25.40
2022-08-28T23:15:14.393Z,25.05
2022-08-28T23:17:42.865Z,25.31
2022-08-28T23:20:12.402Z,25.16
2022-08-28T23:22:40.845Z,24.66
2022-08-28T23:25:10.409Z,24.95
2022-08-28T23:27:39.636Z,25.26
2022-08-28T23:30:09.820Z,25.36
2022-08-28T23:32:38.159Z,25.20
2022-08-28T23:35:08.432Z,25.07
2022-08-28T23:37:37.509Z,25.12
2022-08-28T23:40:07.623Z,25.06
2022-08-28T23:42:35.636Z,25.05
2022-08-28T23:45:05.112Z,24.93
2022-08-28T23:47:34.757Z,25.00
2022-08-28T23:50:11.485Z,25.16
2022-08-28T23:52:39.327Z,24.89
2022-08-28T23:55:09.043Z,25.02
2022-08-28T23:57:37.818Z,24.73
